sensor_id;sensor_type;location;lat;lon;timestamp;P1;durP1;ratioP1;P2;durP2;ratioP2
57828;SDS011;43657;52.698;6.314;2022-12-10T00:01:22;69.53;;;25.40;;
57828;SDS011;43657;52.698;6.314;2022-12-10T00:03:49;56.53;;;23.52;;
57828;SDS011;43657;52.698;6.314;2022-12-10T00:06:36;61.70;;;26.08;;
57828;SDS011;43657;52.698;6.314;2022-12-10T00:09:03;60.83;;;25.30;;
57828;SDS011;43657;52.698;6.314;2022-12-10T00:11:31;58.38;;;24.38;;
57828;SDS011;43657;52.698;6.314;2022-12-10T00:13:57;63.22;;;25.23;;
57828;SDS011;43657;52.698;6.314;2022-12-10T00:16:24;58.42;;;25.45;;
57828;SDS011;43657;52.698;6.314;2022-12-10T00:18:51;94.45;;;48.63;;
57828;SDS011;43657;52.698;6.314;2022-12-10T00:21:25;63.10;;;25.35;;
57828;SDS011;43657;52.698;6.314;2022-12-10T00:23:52;59.00;;;25.00;;
57828;SDS011;43657;52.698;6.314;2022-12-10T00:26:23;58.45;;;25.38;;
57828;SDS011;43657;52.698;6.314;2022-12-10T00:28:50;61.15;;;26.13;;
57828;SDS011;43657;52.698;6.314;2022-12-10T00:31:21;65.45;;;25.73;;
57828;SDS011;43657;52.698;6.314;2022-12-10T00:33:55;66.50;;;25.02;;
57828;SDS011;43657;52.698;6.314;2022-12-10T00:36:24;62.17;;;24.17;;
57828;SDS011;43657;52.698;6.314;2022-12-10T00:38:54;64.82;;;26.25;;
57828;SDS011;43657;52.698;6.314;2022-12-10T00:41:20;64.18;;;24.38;;
57828;SDS011;43657;52.698;6.314;2022-12-10T00:43:47;65.55;;;26.25;;
57828;SDS011;43657;52.698;6.314;2022-12-10T00:46:13;60.20;;;25.10;;
57828;SDS011;43657;52.698;6.314;2022-12-10T00:48:41;66.82;;;27.20;;
57828;SDS011;43657;52.698;6.314;2022-12-10T00:51:11;59.75;;;25.05;;
57828;SDS011;43657;52.698;6.314;2022-12-10T00:53:43;69.25;;;25.65;;
57828;SDS011;43657;52.698;6.314;2022-12-10T00:56:10;61.42;;;24.63;;
57828;SDS011;43657;52.698;6.314;2022-12-10T00:58:37;64.43;;;24.95;;
57828;SDS011;43657;52.698;6.314;2022-12-10T01:03:38;65.55;;;25.33;;
57828;SDS011;43657;52.698;6.314;2022-12-10T01:06:12;67.85;;;26.23;;
57828;SDS011;43657;52.698;6.314;2022-12-10T01:08:39;102.53;;;53.08;;
57828;SDS011;43657;52.698;6.314;2022-12-10T01:11:06;72.82;;;27.40;;
57828;SDS011;43657;52.698;6.314;2022-12-10T01:13:33;74.00;;;27.00;;
57828;SDS011;43657;52.698;6.314;2022-12-10T01:16:00;75.63;;;28.38;;
57828;SDS011;43657;52.698;6.314;2022-12-10T01:18:30;139.65;;;59.65;;
57828;SDS011;43657;52.698;6.314;2022-12-10T01:21:00;68.07;;;26.25;;
57828;SDS011;43657;52.698;6.314;2022-12-10T01:23:31;74.53;;;26.33;;
57828;SDS011;43657;52.698;6.314;2022-12-10T01:26:01;68.75;;;25.65;;
57828;SDS011;43657;52.698;6.314;2022-12-10T01:28:29;83.72;;;26.90;;
57828;SDS011;43657;52.698;6.314;2022-12-10T01:31:02;71.80;;;26.38;;
57828;SDS011;43657;52.698;6.314;2022-12-10T01:33:30;72.05;;;27.77;;
57828;SDS011;43657;52.698;6.314;2022-12-10T01:36:01;83.43;;;28.85;;
57828;SDS011;43657;52.698;6.314;2022-12-10T01:38:38;77.20;;;26.30;;
57828;SDS011;43657;52.698;6.314;2022-12-10T01:41:04;75.93;;;28.02;;
57828;SDS011;43657;52.698;6.314;2022-12-10T01:46:22;74.22;;;27.65;;
57828;SDS011;43657;52.698;6.314;2022-12-10T01:48:50;69.78;;;27.77;;
57828;SDS011;43657;52.698;6.314;2022-12-10T01:51:58;77.00;;;29.75;;
57828;SDS011;43657;52.698;6.314;2022-12-10T01:54:25;75.95;;;26.92;;
57828;SDS011;43657;52.698;6.314;2022-12-10T01:56:58;78.75;;;27.98;;
57828;SDS011;43657;52.698;6.314;2022-12-10T01:59:46;64.07;;;25.98;;
57828;SDS011;43657;52.698;6.314;2022-12-10T02:13:11;74.13;;;28.45;;
57828;SDS011;43657;52.698;6.314;2022-12-10T02:15:50;76.32;;;27.25;;
57828;SDS011;43657;52.698;6.314;2022-12-10T02:18:25;75.18;;;27.90;;
57828;SDS011;43657;52.698;6.314;2022-12-10T02:21:00;81.32;;;27.73;;
57828;SDS011;43657;52.698;6.314;2022-12-10T02:23:31;74.90;;;29.80;;
57828;SDS011;43657;52.698;6.314;2022-12-10T02:29:12;79.75;;;27.17;;
57828;SDS011;43657;52.698;6.314;2022-12-10T02:31:43;71.88;;;27.45;;
57828;SDS011;43657;52.698;6.314;2022-12-10T02:34:14;75.07;;;26.73;;
57828;SDS011;43657;52.698;6.314;2022-12-10T02:36:43;74.13;;;28.92;;
57828;SDS011;43657;52.698;6.314;2022-12-10T02:39:13;70.03;;;28.52;;
57828;SDS011;43657;52.698;6.314;2022-12-10T02:41:45;79.38;;;28.52;;
57828;SDS011;43657;52.698;6.314;2022-12-10T02:44:15;76.28;;;28.25;;
57828;SDS011;43657;52.698;6.314;2022-12-10T02:46:44;77.45;;;27.75;;
57828;SDS011;43657;52.698;6.314;2022-12-10T02:49:13;75.90;;;29.80;;
57828;SDS011;43657;52.698;6.314;2022-12-10T02:51:41;66.35;;;28.58;;
57828;SDS011;43657;52.698;6.314;2022-12-10T02:54:33;73.00;;;27.48;;
57828;SDS011;43657;52.698;6.314;2022-12-10T02:57:21;69.43;;;26.73;;
57828;SDS011;43657;52.698;6.314;2022-12-10T03:00:19;71.47;;;27.63;;
57828;SDS011;43657;52.698;6.314;2022-12-10T03:10:41;77.78;;;28.17;;
57828;SDS011;43657;52.698;6.314;2022-12-10T03:13:14;74.97;;;27.25;;
57828;SDS011;43657;52.698;6.314;2022-12-10T03:15:47;68.47;;;26.77;;
57828;SDS011;43657;52.698;6.314;2022-12-10T03:18:16;73.25;;;27.83;;
57828;SDS011;43657;52.698;6.314;2022-12-10T03:20:44;80.55;;;28.23;;
57828;SDS011;43657;52.698;6.314;2022-12-10T03:23:13;72.10;;;25.90;;
57828;SDS011;43657;52.698;6.314;2022-12-10T03:25:41;77.38;;;28.05;;
57828;SDS011;43657;52.698;6.314;2022-12-10T03:28:08;65.53;;;26.60;;
57828;SDS011;43657;52.698;6.314;2022-12-10T03:30:35;72.13;;;27.42;;
57828;SDS011;43657;52.698;6.314;2022-12-10T03:33:03;72.50;;;26.70;;
57828;SDS011;43657;52.698;6.314;2022-12-10T03:35:30;75.43;;;27.73;;
57828;SDS011;43657;52.698;6.314;2022-12-10T03:37:56;65.60;;;26.58;;
57828;SDS011;43657;52.698;6.314;2022-12-10T03:40:23;70.45;;;26.13;;
57828;SDS011;43657;52.698;6.314;2022-12-10T03:42:50;76.32;;;29.45;;
57828;SDS011;43657;52.698;6.314;2022-12-10T03:45:16;70.32;;;26.85;;
57828;SDS011;43657;52.698;6.314;2022-12-10T03:47:42;71.75;;;28.20;;
57828;SDS011;43657;52.698;6.314;2022-12-10T03:50:09;73.80;;;28.60;;
57828;SDS011;43657;52.698;6.314;2022-12-10T03:52:35;76.45;;;28.23;;
57828;SDS011;43657;52.698;6.314;2022-12-10T03:55:04;74.13;;;28.83;;
57828;SDS011;43657;52.698;6.314;2022-12-10T03:57:31;82.80;;;27.55;;
57828;SDS011;43657;52.698;6.314;2022-12-10T03:59:57;72.05;;;26.10;;
57828;SDS011;43657;52.698;6.314;2022-12-10T04:02:23;71.65;;;27.88;;
57828;SDS011;43657;52.698;6.314;2022-12-10T04:04:49;70.57;;;27.75;;
57828;SDS011;43657;52.698;6.314;2022-12-10T04:07:15;75.50;;;27.38;;
57828;SDS011;43657;52.698;6.314;2022-12-10T04:09:44;83.95;;;26.80;;
57828;SDS011;43657;52.698;6.314;2022-12-10T04:12:09;69.63;;;26.13;;
57828;SDS011;43657;52.698;6.314;2022-12-10T04:14:38;72.25;;;27.95;;
57828;SDS011;43657;52.698;6.314;2022-12-10T04:17:22;80.35;;;28.30;;
57828;SDS011;43657;52.698;6.314;2022-12-10T04:19:48;83.30;;;30.52;;
57828;SDS011;43657;52.698;6.314;2022-12-10T04:22:14;72.30;;;26.65;;
57828;SDS011;43657;52.698;6.314;2022-12-10T04:24:58;82.00;;;27.50;;
57828;SDS011;43657;52.698;6.314;2022-12-10T04:27:42;85.88;;;28.73;;
57828;SDS011;43657;52.698;6.314;2022-12-10T04:30:10;80.38;;;30.45;;
57828;SDS011;43657;52.698;6.314;2022-12-10T04:32:39;76.38;;;28.75;;
57828;SDS011;43657;52.698;6.314;2022-12-10T04:35:05;73.22;;;25.95;;
57828;SDS011;43657;52.698;6.314;2022-12-10T04:37:31;77.93;;;26.77;;
57828;SDS011;43657;52.698;6.314;2022-12-10T04:39:57;72.03;;;26.67;;
57828;SDS011;43657;52.698;6.314;2022-12-10T04:42:22;67.78;;;25.70;;
57828;SDS011;43657;52.698;6.314;2022-12-10T04:44:49;73.47;;;26.42;;
57828;SDS011;43657;52.698;6.314;2022-12-10T04:47:15;76.22;;;28.33;;
57828;SDS011;43657;52.698;6.314;2022-12-10T04:49:41;67.28;;;26.42;;
57828;SDS011;43657;52.698;6.314;2022-12-10T04:52:08;67.85;;;24.80;;
57828;SDS011;43657;52.698;6.314;2022-12-10T04:54:36;64.30;;;25.05;;
57828;SDS011;43657;52.698;6.314;2022-12-10T04:57:02;74.07;;;27.45;;
57828;SDS011;43657;52.698;6.314;2022-12-10T04:59:28;72.32;;;28.80;;
57828;SDS011;43657;52.698;6.314;2022-12-10T05:01:54;61.25;;;24.08;;
57828;SDS011;43657;52.698;6.314;2022-12-10T05:04:19;70.90;;;27.60;;
57828;SDS011;43657;52.698;6.314;2022-12-10T05:06:48;73.78;;;27.73;;
57828;SDS011;43657;52.698;6.314;2022-12-10T05:09:14;68.60;;;26.27;;
57828;SDS011;43657;52.698;6.314;2022-12-10T05:11:41;65.10;;;25.42;;
57828;SDS011;43657;52.698;6.314;2022-12-10T05:14:13;71.32;;;25.90;;
57828;SDS011;43657;52.698;6.314;2022-12-10T05:16:40;72.90;;;28.52;;
57828;SDS011;43657;52.698;6.314;2022-12-10T05:19:09;67.63;;;24.60;;
57828;SDS011;43657;52.698;6.314;2022-12-10T05:21:35;78.07;;;27.80;;
57828;SDS011;43657;52.698;6.314;2022-12-10T05:24:19;72.18;;;27.05;;
57828;SDS011;43657;52.698;6.314;2022-12-10T05:26:46;76.55;;;25.48;;
57828;SDS011;43657;52.698;6.314;2022-12-10T05:29:16;78.18;;;28.30;;
57828;SDS011;43657;52.698;6.314;2022-12-10T05:31:42;73.90;;;27.83;;
57828;SDS011;43657;52.698;6.314;2022-12-10T05:34:08;74.30;;;27.52;;
57828;SDS011;43657;52.698;6.314;2022-12-10T05:36:36;89.63;;;32.00;;
57828;SDS011;43657;52.698;6.314;2022-12-10T05:39:03;71.97;;;27.52;;
57828;SDS011;43657;52.698;6.314;2022-12-10T05:41:30;74.93;;;27.05;;
57828;SDS011;43657;52.698;6.314;2022-12-10T05:43:59;73.55;;;26.70;;
57828;SDS011;43657;52.698;6.314;2022-12-10T05:46:27;75.85;;;27.88;;
57828;SDS011;43657;52.698;6.314;2022-12-10T05:48:54;79.45;;;28.10;;
57828;SDS011;43657;52.698;6.314;2022-12-10T05:51:21;80.53;;;30.10;;
57828;SDS011;43657;52.698;6.314;2022-12-10T05:53:50;78.57;;;29.15;;
57828;SDS011;43657;52.698;6.314;2022-12-10T05:56:17;98.35;;;30.52;;
57828;SDS011;43657;52.698;6.314;2022-12-10T05:58:44;97.60;;;31.17;;
57828;SDS011;43657;52.698;6.314;2022-12-10T06:01:13;90.03;;;29.98;;
57828;SDS011;43657;52.698;6.314;2022-12-10T06:03:41;98.47;;;31.17;;
57828;SDS011;43657;52.698;6.314;2022-12-10T06:06:07;100.75;;;31.65;;
57828;SDS011;43657;52.698;6.314;2022-12-10T06:08:34;108.47;;;34.17;;
57828;SDS011;43657;52.698;6.314;2022-12-10T06:11:01;92.53;;;29.80;;
57828;SDS011;43657;52.698;6.314;2022-12-10T06:13:28;170.27;;;65.65;;
57828;SDS011;43657;52.698;6.314;2022-12-10T06:15:55;96.50;;;30.23;;
57828;SDS011;43657;52.698;6.314;2022-12-10T06:18:22;105.70;;;32.03;;
57828;SDS011;43657;52.698;6.314;2022-12-10T06:20:49;86.55;;;30.08;;
57828;SDS011;43657;52.698;6.314;2022-12-10T06:23:15;86.30;;;29.35;;
57828;SDS011;43657;52.698;6.314;2022-12-10T06:25:41;102.25;;;31.60;;
57828;SDS011;43657;52.698;6.314;2022-12-10T06:28:07;89.82;;;31.10;;
57828;SDS011;43657;52.698;6.314;2022-12-10T06:30:33;92.85;;;32.75;;
57828;SDS011;43657;52.698;6.314;2022-12-10T06:33:02;89.07;;;32.67;;
57828;SDS011;43657;52.698;6.314;2022-12-10T06:35:28;94.43;;;31.50;;
57828;SDS011;43657;52.698;6.314;2022-12-10T06:37:54;93.22;;;31.38;;
57828;SDS011;43657;52.698;6.314;2022-12-10T06:40:20;92.47;;;31.63;;
57828;SDS011;43657;52.698;6.314;2022-12-10T06:42:46;104.13;;;33.55;;
57828;SDS011;43657;52.698;6.314;2022-12-10T06:45:14;94.40;;;30.63;;
57828;SDS011;43657;52.698;6.314;2022-12-10T06:47:40;169.35;;;66.30;;
57828;SDS011;43657;52.698;6.314;2022-12-10T06:50:06;103.80;;;33.42;;
57828;SDS011;43657;52.698;6.314;2022-12-10T06:52:36;99.57;;;32.78;;
57828;SDS011;43657;52.698;6.314;2022-12-10T06:55:02;100.22;;;31.98;;
57828;SDS011;43657;52.698;6.314;2022-12-10T06:57:28;94.78;;;31.80;;
57828;SDS011;43657;52.698;6.314;2022-12-10T06:59:54;173.30;;;66.22;;
57828;SDS011;43657;52.698;6.314;2022-12-10T07:02:25;103.50;;;31.50;;
57828;SDS011;43657;52.698;6.314;2022-12-10T07:11:29;92.70;;;31.33;;
57828;SDS011;43657;52.698;6.314;2022-12-10T07:38:26;101.68;;;33.35;;
57828;SDS011;43657;52.698;6.314;2022-12-10T07:44:42;115.45;;;31.30;;
57828;SDS011;43657;52.698;6.314;2022-12-10T07:47:12;184.73;;;66.32;;
57828;SDS011;43657;52.698;6.314;2022-12-10T07:57:07;185.77;;;68.63;;
57828;SDS011;43657;52.698;6.314;2022-12-10T08:06:14;169.40;;;66.50;;
57828;SDS011;43657;52.698;6.314;2022-12-10T08:09:49;101.18;;;32.53;;
57828;SDS011;43657;52.698;6.314;2022-12-10T08:47:54;90.07;;;30.92;;
57828;SDS011;43657;52.698;6.314;2022-12-10T08:50:57;168.27;;;61.60;;
57828;SDS011;43657;52.698;6.314;2022-12-10T08:57:18;149.82;;;58.75;;
57828;SDS011;43657;52.698;6.314;2022-12-10T09:04:37;90.22;;;28.20;;
57828;SDS011;43657;52.698;6.314;2022-12-10T09:07:24;70.88;;;27.00;;
57828;SDS011;43657;52.698;6.314;2022-12-10T09:09:50;82.13;;;27.80;;
57828;SDS011;43657;52.698;6.314;2022-12-10T09:27:45;132.32;;;52.75;;
57828;SDS011;43657;52.698;6.314;2022-12-10T09:37:52;137.57;;;52.92;;
57828;SDS011;43657;52.698;6.314;2022-12-10T10:49:11;141.65;;;53.92;;
57828;SDS011;43657;52.698;6.314;2022-12-10T11:22:17;166.25;;;57.15;;
57828;SDS011;43657;52.698;6.314;2022-12-10T11:29:25;158.55;;;55.83;;
57828;SDS011;43657;52.698;6.314;2022-12-10T11:37:33;162.77;;;56.85;;
57828;SDS011;43657;52.698;6.314;2022-12-10T11:46:10;190.57;;;60.25;;
57828;SDS011;43657;52.698;6.314;2022-12-10T12:04:10;196.88;;;65.45;;
57828;SDS011;43657;52.698;6.314;2022-12-10T12:07:04;219.55;;;67.80;;
57828;SDS011;43657;52.698;6.314;2022-12-10T12:21:42;207.00;;;68.68;;
57828;SDS011;43657;52.698;6.314;2022-12-10T12:24:39;237.68;;;70.88;;
57828;SDS011;43657;52.698;6.314;2022-12-10T12:44:08;183.75;;;62.45;;
57828;SDS011;43657;52.698;6.314;2022-12-10T12:46:50;147.65;;;54.33;;
57828;SDS011;43657;52.698;6.314;2022-12-10T12:49:35;142.45;;;56.10;;
57828;SDS011;43657;52.698;6.314;2022-12-10T12:55:21;149.10;;;53.58;;
57828;SDS011;43657;52.698;6.314;2022-12-10T13:04:11;153.13;;;56.53;;
57828;SDS011;43657;52.698;6.314;2022-12-10T13:09:49;183.75;;;57.78;;
57828;SDS011;43657;52.698;6.314;2022-12-10T13:12:52;142.80;;;54.08;;
57828;SDS011;43657;52.698;6.314;2022-12-10T13:15:53;142.32;;;52.35;;
57828;SDS011;43657;52.698;6.314;2022-12-10T13:18:40;133.95;;;52.42;;
57828;SDS011;43657;52.698;6.314;2022-12-10T13:21:17;146.13;;;54.22;;
57828;SDS011;43657;52.698;6.314;2022-12-10T13:24:08;124.70;;;50.67;;
57828;SDS011;43657;52.698;6.314;2022-12-10T13:27:05;121.75;;;49.65;;
57828;SDS011;43657;52.698;6.314;2022-12-10T13:32:24;117.70;;;49.63;;
57828;SDS011;43657;52.698;6.314;2022-12-10T13:35:25;128.40;;;49.67;;
57828;SDS011;43657;52.698;6.314;2022-12-10T13:38:22;140.80;;;49.50;;
57828;SDS011;43657;52.698;6.314;2022-12-10T13:44:24;130.25;;;49.55;;
57828;SDS011;43657;52.698;6.314;2022-12-10T13:50:23;138.00;;;50.67;;
57828;SDS011;43657;52.698;6.314;2022-12-10T14:01:58;124.10;;;49.15;;
57828;SDS011;43657;52.698;6.314;2022-12-10T14:08:02;152.55;;;51.10;;
57828;SDS011;43657;52.698;6.314;2022-12-10T14:10:35;120.32;;;47.50;;
57828;SDS011;43657;52.698;6.314;2022-12-10T14:13:03;124.67;;;50.03;;
57828;SDS011;43657;52.698;6.314;2022-12-10T14:15:41;138.80;;;50.20;;
57828;SDS011;43657;52.698;6.314;2022-12-10T14:18:20;115.85;;;47.85;;
57828;SDS011;43657;52.698;6.314;2022-12-10T14:20:56;117.20;;;49.20;;
57828;SDS011;43657;52.698;6.314;2022-12-10T14:23:35;129.18;;;47.55;;
57828;SDS011;43657;52.698;6.314;2022-12-10T14:26:15;105.68;;;45.05;;
57828;SDS011;43657;52.698;6.314;2022-12-10T14:31:49;115.60;;;45.17;;
57828;SDS011;43657;52.698;6.314;2022-12-10T14:34:31;120.07;;;46.08;;
57828;SDS011;43657;52.698;6.314;2022-12-10T14:37:05;109.38;;;45.75;;
57828;SDS011;43657;52.698;6.314;2022-12-10T14:39:59;113.97;;;45.10;;
57828;SDS011;43657;52.698;6.314;2022-12-10T14:42:37;116.07;;;46.92;;
57828;SDS011;43657;52.698;6.314;2022-12-10T14:45:18;119.57;;;46.00;;
57828;SDS011;43657;52.698;6.314;2022-12-10T14:47:55;123.18;;;47.22;;
57828;SDS011;43657;52.698;6.314;2022-12-10T14:50:45;139.23;;;48.60;;
57828;SDS011;43657;52.698;6.314;2022-12-10T14:53:14;126.60;;;48.33;;
57828;SDS011;43657;52.698;6.314;2022-12-10T14:55:47;132.18;;;47.28;;
57828;SDS011;43657;52.698;6.314;2022-12-10T14:58:42;140.70;;;48.58;;
57828;SDS011;43657;52.698;6.314;2022-12-10T15:01:43;137.00;;;48.35;;
57828;SDS011;43657;52.698;6.314;2022-12-10T15:04:23;123.93;;;47.60;;
57828;SDS011;43657;52.698;6.314;2022-12-10T15:10:02;142.05;;;48.38;;
57828;SDS011;43657;52.698;6.314;2022-12-10T15:12:44;131.52;;;47.30;;
57828;SDS011;43657;52.698;6.314;2022-12-10T15:15:37;126.38;;;46.22;;
57828;SDS011;43657;52.698;6.314;2022-12-10T15:18:16;128.15;;;46.75;;
57828;SDS011;43657;52.698;6.314;2022-12-10T15:24:26;153.55;;;47.97;;
57828;SDS011;43657;52.698;6.314;2022-12-10T15:32:57;151.50;;;47.95;;
57828;SDS011;43657;52.698;6.314;2022-12-10T15:35:42;155.65;;;48.03;;
57828;SDS011;43657;52.698;6.314;2022-12-10T15:38:12;157.52;;;49.63;;
57828;SDS011;43657;52.698;6.314;2022-12-10T15:40:38;162.40;;;49.60;;
57828;SDS011;43657;52.698;6.314;2022-12-10T15:43:29;153.70;;;46.28;;
57828;SDS011;43657;52.698;6.314;2022-12-10T15:46:15;85.82;;;22.35;;
57828;SDS011;43657;52.698;6.314;2022-12-10T15:49:29;126.82;;;45.05;;
57828;SDS011;43657;52.698;6.314;2022-12-10T15:52:12;136.27;;;47.10;;
57828;SDS011;43657;52.698;6.314;2022-12-10T15:55:07;167.40;;;47.17;;
57828;SDS011;43657;52.698;6.314;2022-12-10T15:57:54;166.57;;;48.05;;
57828;SDS011;43657;52.698;6.314;2022-12-10T16:00:34;153.30;;;46.20;;
57828;SDS011;43657;52.698;6.314;2022-12-10T16:03:12;153.95;;;47.75;;
57828;SDS011;43657;52.698;6.314;2022-12-10T16:08:35;164.15;;;48.92;;
57828;SDS011;43657;52.698;6.314;2022-12-10T16:11:10;164.80;;;47.83;;
57828;SDS011;43657;52.698;6.314;2022-12-10T16:13:50;161.82;;;46.35;;
57828;SDS011;43657;52.698;6.314;2022-12-10T16:16:25;191.73;;;47.30;;
57828;SDS011;43657;52.698;6.314;2022-12-10T16:18:54;145.23;;;44.30;;
57828;SDS011;43657;52.698;6.314;2022-12-10T16:21:29;166.23;;;45.72;;
57828;SDS011;43657;52.698;6.314;2022-12-10T16:23:58;173.70;;;47.63;;
57828;SDS011;43657;52.698;6.314;2022-12-10T16:26:35;192.00;;;48.75;;
57828;SDS011;43657;52.698;6.314;2022-12-10T16:29:02;201.75;;;47.78;;
57828;SDS011;43657;52.698;6.314;2022-12-10T16:31:28;189.60;;;48.00;;
57828;SDS011;43657;52.698;6.314;2022-12-10T16:34:00;202.02;;;48.25;;
57828;SDS011;43657;52.698;6.314;2022-12-10T16:36:28;146.40;;;44.60;;
57828;SDS011;43657;52.698;6.314;2022-12-10T16:38:57;233.00;;;46.78;;
57828;SDS011;43657;52.698;6.314;2022-12-10T16:41:28;247.52;;;50.28;;
57828;SDS011;43657;52.698;6.314;2022-12-10T16:43:57;164.57;;;46.67;;
57828;SDS011;43657;52.698;6.314;2022-12-10T16:46:25;198.80;;;47.58;;
57828;SDS011;43657;52.698;6.314;2022-12-10T16:48:51;223.57;;;47.15;;
57828;SDS011;43657;52.698;6.314;2022-12-10T16:51:21;178.70;;;44.97;;
57828;SDS011;43657;52.698;6.314;2022-12-10T16:53:49;205.93;;;46.30;;
57828;SDS011;43657;52.698;6.314;2022-12-10T16:56:34;178.65;;;44.88;;
57828;SDS011;43657;52.698;6.314;2022-12-10T16:59:16;143.02;;;42.22;;
57828;SDS011;43657;52.698;6.314;2022-12-10T17:02:00;147.13;;;42.72;;
57828;SDS011;43657;52.698;6.314;2022-12-10T17:04:28;223.80;;;47.50;;
57828;SDS011;43657;52.698;6.314;2022-12-10T17:07:03;174.43;;;42.85;;
57828;SDS011;43657;52.698;6.314;2022-12-10T17:09:31;219.40;;;47.08;;
57828;SDS011;43657;52.698;6.314;2022-12-10T17:12:02;153.82;;;42.72;;
57828;SDS011;43657;52.698;6.314;2022-12-10T17:14:40;185.13;;;45.55;;
57828;SDS011;43657;52.698;6.314;2022-12-10T17:17:14;170.43;;;45.22;;
57828;SDS011;43657;52.698;6.314;2022-12-10T17:19:40;182.85;;;45.33;;
57828;SDS011;43657;52.698;6.314;2022-12-10T17:22:07;154.13;;;42.55;;
57828;SDS011;43657;52.698;6.314;2022-12-10T17:24:37;142.30;;;40.08;;
57828;SDS011;43657;52.698;6.314;2022-12-10T17:27:07;177.30;;;43.72;;
57828;SDS011;43657;52.698;6.314;2022-12-10T17:29:40;170.48;;;43.22;;
57828;SDS011;43657;52.698;6.314;2022-12-10T17:32:40;153.68;;;39.83;;
57828;SDS011;43657;52.698;6.314;2022-12-10T17:35:27;178.32;;;41.33;;
57828;SDS011;43657;52.698;6.314;2022-12-10T17:38:04;185.10;;;41.05;;
57828;SDS011;43657;52.698;6.314;2022-12-10T17:40:30;198.10;;;44.05;;
57828;SDS011;43657;52.698;6.314;2022-12-10T17:43:08;176.20;;;41.80;;
57828;SDS011;43657;52.698;6.314;2022-12-10T17:45:34;223.82;;;42.97;;
57828;SDS011;43657;52.698;6.314;2022-12-10T17:48:02;191.82;;;44.00;;
57828;SDS011;43657;52.698;6.314;2022-12-10T17:50:34;181.68;;;41.92;;
57828;SDS011;43657;52.698;6.314;2022-12-10T17:53:02;165.85;;;41.60;;
57828;SDS011;43657;52.698;6.314;2022-12-10T17:55:34;141.18;;;38.90;;
57828;SDS011;43657;52.698;6.314;2022-12-10T17:58:02;155.10;;;40.92;;
57828;SDS011;43657;52.698;6.314;2022-12-10T18:00:31;119.82;;;37.53;;
57828;SDS011;43657;52.698;6.314;2022-12-10T18:03:02;86.13;;;17.85;;
57828;SDS011;43657;52.698;6.314;2022-12-10T18:05:29;146.77;;;39.58;;
57828;SDS011;43657;52.698;6.314;2022-12-10T18:07:58;146.05;;;38.25;;
57828;SDS011;43657;52.698;6.314;2022-12-10T18:10:25;147.57;;;39.35;;
57828;SDS011;43657;52.698;6.314;2022-12-10T18:12:52;144.43;;;40.58;;
57828;SDS011;43657;52.698;6.314;2022-12-10T18:15:21;108.82;;;36.92;;
57828;SDS011;43657;52.698;6.314;2022-12-10T18:17:50;145.55;;;38.75;;
57828;SDS011;43657;52.698;6.314;2022-12-10T18:20:26;147.88;;;40.78;;
57828;SDS011;43657;52.698;6.314;2022-12-10T18:23:02;139.27;;;39.88;;
57828;SDS011;43657;52.698;6.314;2022-12-10T18:25:30;180.48;;;43.67;;
57828;SDS011;43657;52.698;6.314;2022-12-10T18:27:58;191.75;;;45.63;;
57828;SDS011;43657;52.698;6.314;2022-12-10T18:30:44;187.20;;;44.47;;
57828;SDS011;43657;52.698;6.314;2022-12-10T18:33:12;207.13;;;43.90;;
57828;SDS011;43657;52.698;6.314;2022-12-10T18:35:39;150.63;;;41.20;;
57828;SDS011;43657;52.698;6.314;2022-12-10T18:38:05;164.32;;;41.90;;
57828;SDS011;43657;52.698;6.314;2022-12-10T18:40:31;123.13;;;37.50;;
57828;SDS011;43657;52.698;6.314;2022-12-10T18:42:57;127.65;;;36.40;;
57828;SDS011;43657;52.698;6.314;2022-12-10T18:48:17;145.75;;;38.13;;
57828;SDS011;43657;52.698;6.314;2022-12-10T18:50:43;138.82;;;39.05;;
57828;SDS011;43657;52.698;6.314;2022-12-10T18:53:12;182.30;;;40.30;;
57828;SDS011;43657;52.698;6.314;2022-12-10T18:55:38;126.78;;;38.35;;
57828;SDS011;43657;52.698;6.314;2022-12-10T18:58:07;137.63;;;38.90;;
57828;SDS011;43657;52.698;6.314;2022-12-10T19:00:33;158.98;;;40.72;;
57828;SDS011;43657;52.698;6.314;2022-12-10T19:03:00;145.95;;;44.63;;
57828;SDS011;43657;52.698;6.314;2022-12-10T19:05:25;151.90;;;43.65;;
57828;SDS011;43657;52.698;6.314;2022-12-10T19:07:51;121.15;;;39.13;;
57828;SDS011;43657;52.698;6.314;2022-12-10T19:10:18;140.07;;;37.67;;
57828;SDS011;43657;52.698;6.314;2022-12-10T19:12:46;158.18;;;39.78;;
57828;SDS011;43657;52.698;6.314;2022-12-10T19:15:15;136.80;;;37.60;;
57828;SDS011;43657;52.698;6.314;2022-12-10T19:17:42;114.57;;;35.40;;
57828;SDS011;43657;52.698;6.314;2022-12-10T19:20:16;134.93;;;38.10;;
57828;SDS011;43657;52.698;6.314;2022-12-10T19:22:47;131.70;;;37.67;;
57828;SDS011;43657;52.698;6.314;2022-12-10T19:25:13;105.22;;;34.78;;
57828;SDS011;43657;52.698;6.314;2022-12-10T19:27:41;92.95;;;32.97;;
57828;SDS011;43657;52.698;6.314;2022-12-10T19:30:19;136.55;;;37.92;;
57828;SDS011;43657;52.698;6.314;2022-12-10T19:32:47;126.95;;;37.10;;
57828;SDS011;43657;52.698;6.314;2022-12-10T19:35:13;124.50;;;38.00;;
57828;SDS011;43657;52.698;6.314;2022-12-10T19:37:42;121.43;;;37.22;;
57828;SDS011;43657;52.698;6.314;2022-12-10T19:40:20;159.85;;;39.08;;
57828;SDS011;43657;52.698;6.314;2022-12-10T19:43:00;137.25;;;37.72;;
57828;SDS011;43657;52.698;6.314;2022-12-10T19:45:26;145.15;;;38.83;;
57828;SDS011;43657;52.698;6.314;2022-12-10T19:47:53;124.22;;;36.78;;
57828;SDS011;43657;52.698;6.314;2022-12-10T19:50:29;123.57;;;36.72;;
57828;SDS011;43657;52.698;6.314;2022-12-10T19:52:57;129.35;;;37.33;;
57828;SDS011;43657;52.698;6.314;2022-12-10T19:55:26;109.80;;;36.25;;
57828;SDS011;43657;52.698;6.314;2022-12-10T19:57:52;124.25;;;37.78;;
57828;SDS011;43657;52.698;6.314;2022-12-10T20:00:26;116.65;;;39.15;;
57828;SDS011;43657;52.698;6.314;2022-12-10T20:02:54;102.85;;;35.53;;
57828;SDS011;43657;52.698;6.314;2022-12-10T20:05:20;108.75;;;36.40;;
57828;SDS011;43657;52.698;6.314;2022-12-10T20:07:46;135.10;;;37.92;;
57828;SDS011;43657;52.698;6.314;2022-12-10T20:10:20;107.28;;;36.08;;
57828;SDS011;43657;52.698;6.314;2022-12-10T20:12:50;101.15;;;34.60;;
57828;SDS011;43657;52.698;6.314;2022-12-10T20:15:17;123.63;;;37.95;;
57828;SDS011;43657;52.698;6.314;2022-12-10T20:17:47;129.30;;;40.08;;
57828;SDS011;43657;52.698;6.314;2022-12-10T20:20:19;139.25;;;39.17;;
57828;SDS011;43657;52.698;6.314;2022-12-10T20:22:48;117.22;;;38.67;;
57828;SDS011;43657;52.698;6.314;2022-12-10T20:25:14;113.18;;;36.00;;
57828;SDS011;43657;52.698;6.314;2022-12-10T20:27:41;135.88;;;39.88;;
57828;SDS011;43657;52.698;6.314;2022-12-10T20:30:10;108.75;;;36.85;;
57828;SDS011;43657;52.698;6.314;2022-12-10T20:32:43;134.65;;;39.67;;
57828;SDS011;43657;52.698;6.314;2022-12-10T20:35:10;144.13;;;39.83;;
57828;SDS011;43657;52.698;6.314;2022-12-10T20:37:37;116.03;;;37.42;;
57828;SDS011;43657;52.698;6.314;2022-12-10T20:40:03;98.70;;;36.05;;
57828;SDS011;43657;52.698;6.314;2022-12-10T20:42:29;97.47;;;35.00;;